sensor_id;sensor_type;location;lat;lon;timestamp;P1;durP1;ratioP1;P2;durP2;ratioP2
6290;SDS011;3178;48.730;8.990;2022-07-05T00:00:39;7.87;;;2.57;;
6290;SDS011;3178;48.730;8.990;2022-07-05T00:03:05;4.20;;;2.10;;
6290;SDS011;3178;48.730;8.990;2022-07-05T00:05:30;3.07;;;2.10;;
6290;SDS011;3178;48.730;8.990;2022-07-05T00:07:56;4.10;;;2.97;;
6290;SDS011;3178;48.730;8.990;2022-07-05T00:10:21;3.63;;;2.47;;
6290;SDS011;3178;48.730;8.990;2022-07-05T00:12:47;2.73;;;2.43;;
6290;SDS011;3178;48.730;8.990;2022-07-05T00:15:15;6.70;;;2.37;;
6290;SDS011;3178;48.730;8.990;2022-07-05T00:17:41;4.10;;;2.60;;
6290;SDS011;3178;48.730;8.990;2022-07-05T00:20:07;4.00;;;2.93;;
6290;SDS011;3178;48.730;8.990;2022-07-05T00:22:33;2.67;;;2.47;;
6290;SDS011;3178;48.730;8.990;2022-07-05T00:24:58;3.87;;;2.67;;
6290;SDS011;3178;48.730;8.990;2022-07-05T00:27:24;3.90;;;2.80;;
6290;SDS011;3178;48.730;8.990;2022-07-05T00:29:49;8.00;;;2.63;;
6290;SDS011;3178;48.730;8.990;2022-07-05T00:32:15;2.90;;;2.60;;
6290;SDS011;3178;48.730;8.990;2022-07-05T00:34:40;3.13;;;2.80;;
6290;SDS011;3178;48.730;8.990;2022-07-05T00:37:06;4.00;;;2.73;;
6290;SDS011;3178;48.730;8.990;2022-07-05T00:39:31;6.30;;;2.83;;
6290;SDS011;3178;48.730;8.990;2022-07-05T00:41:57;4.97;;;2.57;;
6290;SDS011;3178;48.730;8.990;2022-07-05T00:44:30;6.03;;;2.47;;
6290;SDS011;3178;48.730;8.990;2022-07-05T00:47:00;3.10;;;2.60;;
6290;SDS011;3178;48.730;8.990;2022-07-05T00:49:29;5.90;;;3.20;;
6290;SDS011;3178;48.730;8.990;2022-07-05T00:51:56;6.87;;;3.10;;
6290;SDS011;3178;48.730;8.990;2022-07-05T00:54:22;7.20;;;3.03;;
6290;SDS011;3178;48.730;8.990;2022-07-05T00:56:48;3.47;;;2.73;;
6290;SDS011;3178;48.730;8.990;2022-07-05T00:59:14;9.30;;;2.83;;
6290;SDS011;3178;48.730;8.990;2022-07-05T01:01:39;3.50;;;2.80;;
6290;SDS011;3178;48.730;8.990;2022-07-05T01:04:06;4.67;;;2.70;;
6290;SDS011;3178;48.730;8.990;2022-07-05T01:06:31;5.57;;;3.33;;
6290;SDS011;3178;48.730;8.990;2022-07-05T01:08:57;7.17;;;2.77;;
6290;SDS011;3178;48.730;8.990;2022-07-05T01:11:24;3.40;;;2.87;;
6290;SDS011;3178;48.730;8.990;2022-07-05T01:13:50;8.37;;;3.00;;
6290;SDS011;3178;48.730;8.990;2022-07-05T01:16:15;3.60;;;2.50;;
6290;SDS011;3178;48.730;8.990;2022-07-05T01:18:42;4.43;;;2.90;;
6290;SDS011;3178;48.730;8.990;2022-07-05T01:21:09;13.77;;;2.70;;
6290;SDS011;3178;48.730;8.990;2022-07-05T01:23:40;3.57;;;3.27;;
6290;SDS011;3178;48.730;8.990;2022-07-05T01:26:05;7.50;;;3.30;;
6290;SDS011;3178;48.730;8.990;2022-07-05T01:28:32;7.37;;;3.03;;
6290;SDS011;3178;48.730;8.990;2022-07-05T01:31:00;6.93;;;4.00;;
6290;SDS011;3178;48.730;8.990;2022-07-05T01:33:27;3.67;;;2.93;;
6290;SDS011;3178;48.730;8.990;2022-07-05T01:35:56;8.63;;;3.77;;
6290;SDS011;3178;48.730;8.990;2022-07-05T01:38:22;3.60;;;3.00;;
6290;SDS011;3178;48.730;8.990;2022-07-05T01:40:49;4.40;;;3.10;;
6290;SDS011;3178;48.730;8.990;2022-07-05T01:43:17;4.90;;;2.83;;
6290;SDS011;3178;48.730;8.990;2022-07-05T01:45:44;4.27;;;3.03;;
6290;SDS011;3178;48.730;8.990;2022-07-05T01:48:14;2.70;;;2.50;;
6290;SDS011;3178;48.730;8.990;2022-07-05T01:50:54;4.20;;;2.63;;
6290;SDS011;3178;48.730;8.990;2022-07-05T01:53:29;6.50;;;3.10;;
6290;SDS011;3178;48.730;8.990;2022-07-05T01:55:57;4.53;;;2.90;;
6290;SDS011;3178;48.730;8.990;2022-07-05T01:58:26;4.67;;;2.80;;
6290;SDS011;3178;48.730;8.990;2022-07-05T02:00:53;3.50;;;3.07;;
6290;SDS011;3178;48.730;8.990;2022-07-05T02:03:20;4.30;;;2.87;;
6290;SDS011;3178;48.730;8.990;2022-07-05T02:05:46;4.80;;;3.13;;
6290;SDS011;3178;48.730;8.990;2022-07-05T02:08:12;5.80;;;3.07;;
6290;SDS011;3178;48.730;8.990;2022-07-05T02:10:39;8.23;;;3.67;;
6290;SDS011;3178;48.730;8.990;2022-07-05T02:13:05;5.60;;;3.13;;
6290;SDS011;3178;48.730;8.990;2022-07-05T02:15:33;6.87;;;2.70;;
6290;SDS011;3178;48.730;8.990;2022-07-05T02:18:00;3.90;;;3.07;;
6290;SDS011;3178;48.730;8.990;2022-07-05T02:20:27;4.70;;;2.63;;
6290;SDS011;3178;48.730;8.990;2022-07-05T02:22:53;2.60;;;2.40;;
6290;SDS011;3178;48.730;8.990;2022-07-05T02:25:19;2.67;;;2.47;;
6290;SDS011;3178;48.730;8.990;2022-07-05T02:27:45;2.87;;;2.30;;
6290;SDS011;3178;48.730;8.990;2022-07-05T02:30:11;6.00;;;2.80;;
6290;SDS011;3178;48.730;8.990;2022-07-05T02:32:37;5.70;;;2.97;;
6290;SDS011;3178;48.730;8.990;2022-07-05T02:35:03;5.73;;;3.10;;
6290;SDS011;3178;48.730;8.990;2022-07-05T02:37:29;6.30;;;3.23;;
6290;SDS011;3178;48.730;8.990;2022-07-05T02:39:55;8.93;;;2.97;;
6290;SDS011;3178;48.730;8.990;2022-07-05T02:42:20;3.90;;;2.97;;
6290;SDS011;3178;48.730;8.990;2022-07-05T02:44:46;9.40;;;3.93;;
6290;SDS011;3178;48.730;8.990;2022-07-05T02:47:12;4.90;;;2.80;;
6290;SDS011;3178;48.730;8.990;2022-07-05T02:49:37;8.83;;;3.00;;
6290;SDS011;3178;48.730;8.990;2022-07-05T02:52:03;4.03;;;2.83;;
6290;SDS011;3178;48.730;8.990;2022-07-05T02:54:29;3.70;;;2.70;;
6290;SDS011;3178;48.730;8.990;2022-07-05T02:56:54;4.30;;;2.63;;
6290;SDS011;3178;48.730;8.990;2022-07-05T02:59:20;4.70;;;2.60;;
6290;SDS011;3178;48.730;8.990;2022-07-05T03:01:45;6.00;;;3.00;;
6290;SDS011;3178;48.730;8.990;2022-07-05T03:04:11;3.53;;;2.80;;
6290;SDS011;3178;48.730;8.990;2022-07-05T03:06:37;8.20;;;2.77;;
6290;SDS011;3178;48.730;8.990;2022-07-05T03:09:02;7.47;;;3.37;;
6290;SDS011;3178;48.730;8.990;2022-07-05T03:11:28;3.33;;;2.63;;
6290;SDS011;3178;48.730;8.990;2022-07-05T03:13:54;6.97;;;2.60;;
6290;SDS011;3178;48.730;8.990;2022-07-05T03:16:19;4.10;;;2.53;;
6290;SDS011;3178;48.730;8.990;2022-07-05T03:18:46;4.60;;;2.60;;
6290;SDS011;3178;48.730;8.990;2022-07-05T03:21:12;14.47;;;3.00;;
6290;SDS011;3178;48.730;8.990;2022-07-05T03:23:37;5.87;;;2.60;;
6290;SDS011;3178;48.730;8.990;2022-07-05T03:26:03;6.20;;;2.93;;
6290;SDS011;3178;48.730;8.990;2022-07-05T03:28:28;11.60;;;2.50;;
6290;SDS011;3178;48.730;8.990;2022-07-05T03:30:54;7.83;;;2.30;;
6290;SDS011;3178;48.730;8.990;2022-07-05T03:33:20;15.03;;;2.80;;
6290;SDS011;3178;48.730;8.990;2022-07-05T03:35:45;3.20;;;2.13;;
6290;SDS011;3178;48.730;8.990;2022-07-05T03:38:11;11.03;;;2.93;;
6290;SDS011;3178;48.730;8.990;2022-07-05T03:40:36;4.00;;;2.57;;
6290;SDS011;3178;48.730;8.990;2022-07-05T03:43:02;5.07;;;2.30;;
6290;SDS011;3178;48.730;8.990;2022-07-05T03:45:27;2.93;;;2.40;;
6290;SDS011;3178;48.730;8.990;2022-07-05T03:47:56;7.40;;;2.97;;
6290;SDS011;3178;48.730;8.990;2022-07-05T03:50:23;3.77;;;2.23;;
6290;SDS011;3178;48.730;8.990;2022-07-05T03:52:48;5.67;;;2.73;;
6290;SDS011;3178;48.730;8.990;2022-07-05T03:55:14;10.63;;;2.80;;
6290;SDS011;3178;48.730;8.990;2022-07-05T03:57:40;6.80;;;2.33;;
6290;SDS011;3178;48.730;8.990;2022-07-05T04:00:05;3.77;;;2.60;;
6290;SDS011;3178;48.730;8.990;2022-07-05T04:02:31;8.70;;;3.00;;
6290;SDS011;3178;48.730;8.990;2022-07-05T04:04:57;3.47;;;2.37;;
6290;SDS011;3178;48.730;8.990;2022-07-05T04:07:22;3.60;;;2.83;;
6290;SDS011;3178;48.730;8.990;2022-07-05T04:09:48;6.53;;;2.73;;
6290;SDS011;3178;48.730;8.990;2022-07-05T04:12:13;8.67;;;2.90;;
6290;SDS011;3178;48.730;8.990;2022-07-05T04:14:39;8.33;;;2.70;;
6290;SDS011;3178;48.730;8.990;2022-07-05T04:17:05;6.67;;;2.50;;
6290;SDS011;3178;48.730;8.990;2022-07-05T04:19:30;6.80;;;2.67;;
6290;SDS011;3178;48.730;8.990;2022-07-05T04:21:56;7.73;;;2.87;;
6290;SDS011;3178;48.730;8.990;2022-07-05T04:24:21;6.00;;;3.13;;
6290;SDS011;3178;48.730;8.990;2022-07-05T04:26:47;9.10;;;2.70;;
6290;SDS011;3178;48.730;8.990;2022-07-05T04:29:12;8.70;;;3.20;;
6290;SDS011;3178;48.730;8.990;2022-07-05T04:31:38;8.70;;;2.70;;
6290;SDS011;3178;48.730;8.990;2022-07-05T04:34:03;6.70;;;3.20;;
6290;SDS011;3178;48.730;8.990;2022-07-05T04:36:29;9.70;;;2.53;;
6290;SDS011;3178;48.730;8.990;2022-07-05T04:38:55;4.43;;;2.40;;
6290;SDS011;3178;48.730;8.990;2022-07-05T04:41:20;9.13;;;3.20;;
6290;SDS011;3178;48.730;8.990;2022-07-05T04:43:46;6.13;;;2.63;;
6290;SDS011;3178;48.730;8.990;2022-07-05T04:46:11;10.07;;;2.20;;
6290;SDS011;3178;48.730;8.990;2022-07-05T04:48:37;4.87;;;2.50;;
6290;SDS011;3178;48.730;8.990;2022-07-05T04:51:03;7.00;;;2.57;;
6290;SDS011;3178;48.730;8.990;2022-07-05T04:53:28;5.47;;;3.30;;
6290;SDS011;3178;48.730;8.990;2022-07-05T04:55:54;5.47;;;2.40;;
6290;SDS011;3178;48.730;8.990;2022-07-05T04:58:19;9.40;;;2.97;;
6290;SDS011;3178;48.730;8.990;2022-07-05T05:00:45;6.30;;;2.70;;
6290;SDS011;3178;48.730;8.990;2022-07-05T05:03:11;6.00;;;2.53;;
6290;SDS011;3178;48.730;8.990;2022-07-05T05:05:36;4.33;;;2.60;;
6290;SDS011;3178;48.730;8.990;2022-07-05T05:08:02;4.43;;;2.43;;
6290;SDS011;3178;48.730;8.990;2022-07-05T05:10:27;6.40;;;2.60;;
6290;SDS011;3178;48.730;8.990;2022-07-05T05:12:53;6.30;;;2.40;;
6290;SDS011;3178;48.730;8.990;2022-07-05T05:15:18;3.57;;;2.07;;
6290;SDS011;3178;48.730;8.990;2022-07-05T05:17:44;9.47;;;2.63;;
6290;SDS011;3178;48.730;8.990;2022-07-05T05:20:11;5.00;;;2.43;;
6290;SDS011;3178;48.730;8.990;2022-07-05T05:22:38;5.50;;;2.37;;
6290;SDS011;3178;48.730;8.990;2022-07-05T05:25:04;5.37;;;2.50;;
6290;SDS011;3178;48.730;8.990;2022-07-05T05:27:31;3.83;;;2.10;;
6290;SDS011;3178;48.730;8.990;2022-07-05T05:29:56;8.07;;;2.77;;
6290;SDS011;3178;48.730;8.990;2022-07-05T05:32:22;3.50;;;2.30;;
6290;SDS011;3178;48.730;8.990;2022-07-05T05:34:47;7.10;;;2.27;;
6290;SDS011;3178;48.730;8.990;2022-07-05T05:37:13;2.83;;;2.20;;
6290;SDS011;3178;48.730;8.990;2022-07-05T05:39:38;5.17;;;2.60;;
6290;SDS011;3178;48.730;8.990;2022-07-05T05:42:04;3.27;;;2.10;;
6290;SDS011;3178;48.730;8.990;2022-07-05T05:44:30;4.10;;;2.60;;
6290;SDS011;3178;48.730;8.990;2022-07-05T05:46:56;2.50;;;2.00;;
6290;SDS011;3178;48.730;8.990;2022-07-05T05:49:22;2.93;;;1.90;;
6290;SDS011;3178;48.730;8.990;2022-07-05T05:51:47;5.33;;;2.23;;
6290;SDS011;3178;48.730;8.990;2022-07-05T05:54:13;10.23;;;1.97;;
6290;SDS011;3178;48.730;8.990;2022-07-05T05:56:38;3.13;;;1.70;;
6290;SDS011;3178;48.730;8.990;2022-07-05T05:59:04;2.60;;;1.50;;
6290;SDS011;3178;48.730;8.990;2022-07-05T06:01:29;6.93;;;2.07;;
6290;SDS011;3178;48.730;8.990;2022-07-05T06:03:55;3.67;;;1.80;;
6290;SDS011;3178;48.730;8.990;2022-07-05T06:06:21;2.20;;;1.63;;
6290;SDS011;3178;48.730;8.990;2022-07-05T06:08:46;4.80;;;1.90;;
6290;SDS011;3178;48.730;8.990;2022-07-05T06:11:12;2.40;;;2.03;;
6290;SDS011;3178;48.730;8.990;2022-07-05T06:13:38;3.30;;;1.47;;
6290;SDS011;3178;48.730;8.990;2022-07-05T06:16:05;4.70;;;1.70;;
6290;SDS011;3178;48.730;8.990;2022-07-05T06:18:31;3.23;;;1.43;;
6290;SDS011;3178;48.730;8.990;2022-07-05T06:20:57;1.57;;;1.37;;
6290;SDS011;3178;48.730;8.990;2022-07-05T06:23:22;3.60;;;1.40;;
6290;SDS011;3178;48.730;8.990;2022-07-05T06:25:48;2.10;;;1.50;;
6290;SDS011;3178;48.730;8.990;2022-07-05T06:28:14;4.30;;;1.70;;
6290;SDS011;3178;48.730;8.990;2022-07-05T06:30:40;3.10;;;1.67;;
6290;SDS011;3178;48.730;8.990;2022-07-05T06:33:06;3.47;;;1.37;;
6290;SDS011;3178;48.730;8.990;2022-07-05T06:35:32;4.83;;;1.80;;
6290;SDS011;3178;48.730;8.990;2022-07-05T06:37:58;4.20;;;1.40;;
6290;SDS011;3178;48.730;8.990;2022-07-05T06:40:27;2.23;;;1.30;;
6290;SDS011;3178;48.730;8.990;2022-07-05T06:42:55;15.97;;;2.07;;
6290;SDS011;3178;48.730;8.990;2022-07-05T06:45:24;8.43;;;1.70;;
6290;SDS011;3178;48.730;8.990;2022-07-05T06:47:54;5.00;;;1.70;;
6290;SDS011;3178;48.730;8.990;2022-07-05T06:50:24;2.33;;;1.23;;
6290;SDS011;3178;48.730;8.990;2022-07-05T06:52:51;2.57;;;1.40;;
6290;SDS011;3178;48.730;8.990;2022-07-05T06:55:17;2.90;;;1.40;;
6290;SDS011;3178;48.730;8.990;2022-07-05T06:57:43;7.03;;;1.70;;
6290;SDS011;3178;48.730;8.990;2022-07-05T07:00:10;4.47;;;1.20;;
6290;SDS011;3178;48.730;8.990;2022-07-05T07:02:36;4.10;;;1.30;;
6290;SDS011;3178;48.730;8.990;2022-07-05T07:05:02;3.13;;;1.20;;
6290;SDS011;3178;48.730;8.990;2022-07-05T07:07:30;4.13;;;1.33;;
6290;SDS011;3178;48.730;8.990;2022-07-05T07:10:14;4.27;;;1.30;;
6290;SDS011;3178;48.730;8.990;2022-07-05T07:12:40;2.07;;;1.30;;
6290;SDS011;3178;48.730;8.990;2022-07-05T07:15:05;4.60;;;1.20;;
6290;SDS011;3178;48.730;8.990;2022-07-05T07:17:31;2.83;;;0.97;;
6290;SDS011;3178;48.730;8.990;2022-07-05T07:19:57;4.40;;;0.93;;
6290;SDS011;3178;48.730;8.990;2022-07-05T07:22:22;4.70;;;1.50;;
6290;SDS011;3178;48.730;8.990;2022-07-05T07:24:48;3.03;;;1.13;;
6290;SDS011;3178;48.730;8.990;2022-07-05T07:27:14;4.77;;;1.40;;
6290;SDS011;3178;48.730;8.990;2022-07-05T07:29:39;2.47;;;1.10;;
6290;SDS011;3178;48.730;8.990;2022-07-05T07:32:06;2.60;;;1.10;;
6290;SDS011;3178;48.730;8.990;2022-07-05T07:34:32;5.40;;;1.10;;
6290;SDS011;3178;48.730;8.990;2022-07-05T07:36:58;4.77;;;1.13;;
6290;SDS011;3178;48.730;8.990;2022-07-05T07:39:24;4.87;;;1.30;;
6290;SDS011;3178;48.730;8.990;2022-07-05T07:41:51;9.20;;;1.13;;
6290;SDS011;3178;48.730;8.990;2022-07-05T07:44:17;4.07;;;1.40;;
6290;SDS011;3178;48.730;8.990;2022-07-05T07:46:43;7.30;;;1.10;;
6290;SDS011;3178;48.730;8.990;2022-07-05T07:49:09;1.70;;;1.10;;
6290;SDS011;3178;48.730;8.990;2022-07-05T07:51:36;2.97;;;1.13;;
6290;SDS011;3178;48.730;8.990;2022-07-05T07:54:02;22.57;;;1.50;;
6290;SDS011;3178;48.730;8.990;2022-07-05T07:56:27;4.40;;;1.30;;
6290;SDS011;3178;48.730;8.990;2022-07-05T07:58:53;3.80;;;1.07;;
6290;SDS011;3178;48.730;8.990;2022-07-05T08:01:19;1.50;;;1.23;;
6290;SDS011;3178;48.730;8.990;2022-07-05T08:03:45;2.87;;;1.07;;
6290;SDS011;3178;48.730;8.990;2022-07-05T08:06:11;1.63;;;1.00;;
6290;SDS011;3178;48.730;8.990;2022-07-05T08:08:37;6.70;;;1.53;;
6290;SDS011;3178;48.730;8.990;2022-07-05T08:11:03;2.50;;;1.17;;
6290;SDS011;3178;48.730;8.990;2022-07-05T08:13:29;8.97;;;1.53;;
6290;SDS011;3178;48.730;8.990;2022-07-05T08:15:55;4.53;;;1.50;;
6290;SDS011;3178;48.730;8.990;2022-07-05T08:18:22;7.03;;;1.20;;
6290;SDS011;3178;48.730;8.990;2022-07-05T08:21:06;1.63;;;1.07;;
6290;SDS011;3178;48.730;8.990;2022-07-05T08:23:50;4.00;;;1.50;;
6290;SDS011;3178;48.730;8.990;2022-07-05T08:26:15;8.20;;;1.40;;
6290;SDS011;3178;48.730;8.990;2022-07-05T08:28:41;6.60;;;1.80;;
6290;SDS011;3178;48.730;8.990;2022-07-05T08:31:06;3.17;;;1.20;;
6290;SDS011;3178;48.730;8.990;2022-07-05T08:33:32;10.87;;;1.57;;
6290;SDS011;3178;48.730;8.990;2022-07-05T08:35:57;6.93;;;1.23;;
6290;SDS011;3178;48.730;8.990;2022-07-05T08:38:23;9.13;;;1.80;;
6290;SDS011;3178;48.730;8.990;2022-07-05T08:40:50;6.80;;;1.17;;
6290;SDS011;3178;48.730;8.990;2022-07-05T08:43:17;5.57;;;1.13;;
6290;SDS011;3178;48.730;8.990;2022-07-05T08:45:43;2.80;;;1.53;;
6290;SDS011;3178;48.730;8.990;2022-07-05T08:48:09;15.47;;;1.60;;
6290;SDS011;3178;48.730;8.990;2022-07-05T08:50:39;1.50;;;0.90;;
6290;SDS011;3178;48.730;8.990;2022-07-05T08:53:06;4.23;;;1.10;;
6290;SDS011;3178;48.730;8.990;2022-07-05T08:55:32;2.10;;;1.10;;
6290;SDS011;3178;48.730;8.990;2022-07-05T08:57:58;2.67;;;1.20;;
6290;SDS011;3178;48.730;8.990;2022-07-05T09:00:24;4.60;;;1.20;;
6290;SDS011;3178;48.730;8.990;2022-07-05T09:02:50;3.47;;;1.00;;
6290;SDS011;3178;48.730;8.990;2022-07-05T09:05:17;2.43;;;1.23;;
6290;SDS011;3178;48.730;8.990;2022-07-05T09:08:17;10.00;;;1.33;;
6290;SDS011;3178;48.730;8.990;2022-07-05T09:10:39;3.43;;;1.20;;
6290;SDS011;3178;48.730;8.990;2022-07-05T09:13:07;3.43;;;1.77;;
6290;SDS011;3178;48.730;8.990;2022-07-05T09:15:33;4.47;;;1.40;;
6290;SDS011;3178;48.730;8.990;2022-07-05T09:17:59;2.90;;;1.40;;
6290;SDS011;3178;48.730;8.990;2022-07-05T09:20:26;5.83;;;1.30;;
6290;SDS011;3178;48.730;8.990;2022-07-05T09:22:55;3.73;;;1.43;;
6290;SDS011;3178;48.730;8.990;2022-07-05T09:25:24;5.77;;;1.40;;
6290;SDS011;3178;48.730;8.990;2022-07-05T09:27:55;5.83;;;1.30;;
6290;SDS011;3178;48.730;8.990;2022-07-05T09:32:59;3.30;;;1.33;;
6290;SDS011;3178;48.730;8.990;2022-07-05T09:35:30;4.33;;;1.40;;
6290;SDS011;3178;48.730;8.990;2022-07-05T09:37:56;1.87;;;1.13;;
6290;SDS011;3178;48.730;8.990;2022-07-05T09:40:22;4.37;;;1.13;;
6290;SDS011;3178;48.730;8.990;2022-07-05T09:42:48;8.70;;;1.47;;
6290;SDS011;3178;48.730;8.990;2022-07-05T09:45:15;2.83;;;1.30;;
6290;SDS011;3178;48.730;8.990;2022-07-05T09:47:47;5.73;;;1.10;;
6290;SDS011;3178;48.730;8.990;2022-07-05T09:50:13;4.23;;;1.13;;
6290;SDS011;3178;48.730;8.990;2022-07-05T09:52:39;8.10;;;1.30;;
6290;SDS011;3178;48.730;8.990;2022-07-05T09:55:10;4.50;;;1.17;;
6290;SDS011;3178;48.730;8.990;2022-07-05T09:57:38;2.70;;;0.97;;
6290;SDS011;3178;48.730;8.990;2022-07-05T10:00:06;3.83;;;1.07;;
6290;SDS011;3178;48.730;8.990;2022-07-05T10:07:37;3.40;;;1.30;;
6290;SDS011;3178;48.730;8.990;2022-07-05T10:10:05;2.03;;;1.20;;
6290;SDS011;3178;48.730;8.990;2022-07-05T10:12:32;2.10;;;1.10;;
6290;SDS011;3178;48.730;8.990;2022-07-05T10:15:00;6.50;;;1.40;;
6290;SDS011;3178;48.730;8.990;2022-07-05T10:17:26;5.63;;;0.93;;
6290;SDS011;3178;48.730;8.990;2022-07-05T10:19:55;7.37;;;1.40;;
6290;SDS011;3178;48.730;8.990;2022-07-05T10:22:22;2.63;;;1.10;;
6290;SDS011;3178;48.730;8.990;2022-07-05T10:24:48;3.93;;;1.27;;
6290;SDS011;3178;48.730;8.990;2022-07-05T10:27:15;4.60;;;2.57;;
6290;SDS011;3178;48.730;8.990;2022-07-05T10:29:42;3.13;;;1.47;;
6290;SDS011;3178;48.730;8.990;2022-07-05T10:32:08;9.23;;;2.63;;
6290;SDS011;3178;48.730;8.990;2022-07-05T10:34:35;7.47;;;3.70;;
6290;SDS011;3178;48.730;8.990;2022-07-05T10:37:00;5.60;;;3.03;;
6290;SDS011;3178;48.730;8.990;2022-07-05T10:39:26;5.37;;;1.03;;
6290;SDS011;3178;48.730;8.990;2022-07-05T10:41:53;4.20;;;1.17;;
6290;SDS011;3178;48.730;8.990;2022-07-05T10:44:33;2.80;;;1.80;;
6290;SDS011;3178;48.730;8.990;2022-07-05T10:47:09;4.60;;;2.07;;
6290;SDS011;3178;48.730;8.990;2022-07-05T10:49:36;8.67;;;1.33;;
6290;SDS011;3178;48.730;8.990;2022-07-05T10:52:02;3.50;;;1.90;;
6290;SDS011;3178;48.730;8.990;2022-07-05T10:54:28;1.90;;;1.03;;
6290;SDS011;3178;48.730;8.990;2022-07-05T11:00:04;3.13;;;1.10;;
6290;SDS011;3178;48.730;8.990;2022-07-05T11:02:30;3.80;;;1.53;;
6290;SDS011;3178;48.730;8.990;2022-07-05T11:04:56;3.63;;;1.00;;
6290;SDS011;3178;48.730;8.990;2022-07-05T11:10:25;3.30;;;1.53;;
6290;SDS011;3178;48.730;8.990;2022-07-05T11:12:51;2.70;;;1.43;;
6290;SDS011;3178;48.730;8.990;2022-07-05T11:15:16;3.73;;;1.10;;
6290;SDS011;3178;48.730;8.990;2022-07-05T11:17:42;6.33;;;1.70;;
6290;SDS011;3178;48.730;8.990;2022-07-05T11:22:39;4.20;;;1.20;;
6290;SDS011;3178;48.730;8.990;2022-07-05T11:25:07;4.70;;;1.33;;
6290;SDS011;3178;48.730;8.990;2022-07-05T11:27:35;2.63;;;1.40;;
6290;SDS011;3178;48.730;8.990;2022-07-05T11:30:01;2.87;;;1.37;;
6290;SDS011;3178;48.730;8.990;2022-07-05T11:34:53;2.33;;;1.53;;
6290;SDS011;3178;48.730;8.990;2022-07-05T11:42:33;5.60;;;1.50;;
6290;SDS011;3178;48.730;8.990;2022-07-05T11:45:07;2.30;;;1.10;;
6290;SDS011;3178;48.730;8.990;2022-07-05T11:47:33;3.10;;;1.07;;
6290;SDS011;3178;48.730;8.990;2022-07-05T11:50:00;2.07;;;1.10;;
6290;SDS011;3178;48.730;8.990;2022-07-05T11:52:26;10.53;;;1.47;;
6290;SDS011;3178;48.730;8.990;2022-07-05T11:55:05;5.00;;;1.40;;
6290;SDS011;3178;48.730;8.990;2022-07-05T11:57:32;2.40;;;1.40;;
6290;SDS011;3178;48.730;8.990;2022-07-05T11:59:58;14.70;;;1.50;;
6290;SDS011;3178;48.730;8.990;2022-07-05T12:02:24;4.20;;;1.40;;
6290;SDS011;3178;48.730;8.990;2022-07-05T12:04:50;13.70;;;1.90;;
6290;SDS011;3178;48.730;8.990;2022-07-05T12:07:26;5.80;;;1.17;;
6290;SDS011;3178;48.730;8.990;2022-07-05T12:09:56;6.43;;;1.93;;
6290;SDS011;3178;48.730;8.990;2022-07-05T12:12:42;3.03;;;1.30;;
6290;SDS011;3178;48.730;8.990;2022-07-05T12:15:09;1.57;;;1.20;;
6290;SDS011;3178;48.730;8.990;2022-07-05T12:17:34;10.93;;;1.10;;
6290;SDS011;3178;48.730;8.990;2022-07-05T12:20:01;2.13;;;1.23;;
6290;SDS011;3178;48.730;8.990;2022-07-05T12:22:27;6.93;;;1.43;;
6290;SDS011;3178;48.730;8.990;2022-07-05T12:24:57;2.03;;;1.20;;
6290;SDS011;3178;48.730;8.990;2022-07-05T12:27:24;4.30;;;1.27;;
6290;SDS011;3178;48.730;8.990;2022-07-05T12:29:54;4.60;;;1.50;;
6290;SDS011;3178;48.730;8.990;2022-07-05T12:32:20;2.80;;;1.50;;
6290;SDS011;3178;48.730;8.990;2022-07-05T12:34:46;1.50;;;1.10;;
6290;SDS011;3178;48.730;8.990;2022-07-05T12:37:19;5.97;;;1.47;;
6290;SDS011;3178;48.730;8.990;2022-07-05T12:39:48;6.30;;;1.27;;
6290;SDS011;3178;48.730;8.990;2022-07-05T12:42:34;6.40;;;1.93;;
6290;SDS011;3178;48.730;8.990;2022-07-05T12:47:51;7.43;;;1.40;;
6290;SDS011;3178;48.730;8.990;2022-07-05T12:50:18;2.23;;;1.40;;
6290;SDS011;3178;48.730;8.990;2022-07-05T12:52:56;3.60;;;1.40;;
6290;SDS011;3178;48.730;8.990;2022-07-05T12:55:59;2.77;;;1.33;;
6290;SDS011;3178;48.730;8.990;2022-07-05T12:58:49;5.27;;;1.50;;
6290;SDS011;3178;48.730;8.990;2022-07-05T13:04:04;2.23;;;1.80;;
6290;SDS011;3178;48.730;8.990;2022-07-05T13:09:16;3.30;;;1.40;;
6290;SDS011;3178;48.730;8.990;2022-07-05T13:14:36;3.00;;;1.47;;
6290;SDS011;3178;48.730;8.990;2022-07-05T13:17:04;3.93;;;1.33;;
6290;SDS011;3178;48.730;8.990;2022-07-05T13:19:30;2.40;;;1.17;;
6290;SDS011;3178;48.730;8.990;2022-07-05T13:21:55;3.30;;;1.10;;
6290;SDS011;3178;48.730;8.990;2022-07-05T13:24:21;4.83;;;1.30;;
6290;SDS011;3178;48.730;8.990;2022-07-05T13:26:47;3.27;;;1.57;;
6290;SDS011;3178;48.730;8.990;2022-07-05T13:29:12;2.53;;;1.20;;
6290;SDS011;3178;48.730;8.990;2022-07-05T13:31:38;4.03;;;1.23;;
6290;SDS011;3178;48.730;8.990;2022-07-05T13:34:03;2.73;;;1.40;;
6290;SDS011;3178;48.730;8.990;2022-07-05T13:36:30;2.20;;;1.30;;
6290;SDS011;3178;48.730;8.990;2022-07-05T13:38:55;7.43;;;2.50;;
6290;SDS011;3178;48.730;8.990;2022-07-05T13:41:21;5.43;;;1.57;;
6290;SDS011;3178;48.730;8.990;2022-07-05T13:43:46;11.07;;;1.43;;
6290;SDS011;3178;48.730;8.990;2022-07-05T13:46:12;4.70;;;1.20;;
6290;SDS011;3178;48.730;8.990;2022-07-05T13:48:38;1.60;;;1.20;;
6290;SDS011;3178;48.730;8.990;2022-07-05T13:51:04;5.70;;;1.63;;
6290;SDS011;3178;48.730;8.990;2022-07-05T13:53:30;9.70;;;1.63;;
6290;SDS011;3178;48.730;8.990;2022-07-05T13:55:56;2.97;;;1.33;;
6290;SDS011;3178;48.730;8.990;2022-07-05T13:58:22;6.17;;;1.30;;
6290;SDS011;3178;48.730;8.990;2022-07-05T14:00:47;2.20;;;1.27;;
6290;SDS011;3178;48.730;8.990;2022-07-05T14:03:13;5.97;;;1.60;;
6290;SDS011;3178;48.730;8.990;2022-07-05T14:05:40;5.53;;;1.40;;
6290;SDS011;3178;48.730;8.990;2022-07-05T14:08:09;2.67;;;1.40;;
6290;SDS011;3178;48.730;8.990;2022-07-05T14:10:38;9.50;;;1.40;;
6290;SDS011;3178;48.730;8.990;2022-07-05T14:13:05;2.83;;;1.40;;
6290;SDS011;3178;48.730;8.990;2022-07-05T14:15:31;4.70;;;1.30;;
6290;SDS011;3178;48.730;8.990;2022-07-05T14:17:57;11.77;;;1.70;;
6290;SDS011;3178;48.730;8.990;2022-07-05T14:20:24;4.30;;;1.10;;
6290;SDS011;3178;48.730;8.990;2022-07-05T14:22:50;3.37;;;1.30;;
6290;SDS011;3178;48.730;8.990;2022-07-05T14:25:16;5.53;;;1.10;;
6290;SDS011;3178;48.730;8.990;2022-07-05T14:27:41;3.33;;;1.30;;
6290;SDS011;3178;48.730;8.990;2022-07-05T14:30:08;4.23;;;1.30;;
6290;SDS011;3178;48.730;8.990;2022-07-05T14:32:35;3.20;;;1.33;;
6290;SDS011;3178;48.730;8.990;2022-07-05T14:35:01;7.27;;;1.50;;
6290;SDS011;3178;48.730;8.990;2022-07-05T14:37:27;4.60;;;1.40;;
6290;SDS011;3178;48.730;8.990;2022-07-05T14:39:53;2.43;;;1.33;;
6290;SDS011;3178;48.730;8.990;2022-07-05T14:42:18;4.60;;;1.33;;
6290;SDS011;3178;48.730;8.990;2022-07-05T14:44:44;8.50;;;2.10;;
6290;SDS011;3178;48.730;8.990;2022-07-05T14:47:09;3.70;;;1.43;;
6290;SDS011;3178;48.730;8.990;2022-07-05T14:49:35;3.30;;;1.30;;
6290;SDS011;3178;48.730;8.990;2022-07-05T14:52:01;1.33;;;1.20;;
6290;SDS011;3178;48.730;8.990;2022-07-05T14:54:26;2.00;;;1.57;;
6290;SDS011;3178;48.730;8.990;2022-07-05T14:56:52;5.83;;;1.47;;
6290;SDS011;3178;48.730;8.990;2022-07-05T14:59:18;4.47;;;1.70;;
6290;SDS011;3178;48.730;8.990;2022-07-05T15:01:44;4.00;;;1.17;;
6290;SDS011;3178;48.730;8.990;2022-07-05T15:04:09;4.30;;;1.87;;
6290;SDS011;3178;48.730;8.990;2022-07-05T15:06:35;5.70;;;1.00;;
6290;SDS011;3178;48.730;8.990;2022-07-05T15:09:01;4.50;;;1.43;;
6290;SDS011;3178;48.730;8.990;2022-07-05T15:11:26;7.63;;;1.40;;
6290;SDS011;3178;48.730;8.990;2022-07-05T15:13:54;3.97;;;1.40;;
6290;SDS011;3178;48.730;8.990;2022-07-05T15:16:20;4.03;;;1.10;;
6290;SDS011;3178;48.730;8.990;2022-07-05T15:18:45;1.50;;;1.00;;
6290;SDS011;3178;48.730;8.990;2022-07-05T15:21:11;3.77;;;1.50;;
6290;SDS011;3178;48.730;8.990;2022-07-05T15:23:37;4.13;;;1.10;;
6290;SDS011;3178;48.730;8.990;2022-07-05T15:26:02;4.90;;;1.23;;
6290;SDS011;3178;48.730;8.990;2022-07-05T15:28:28;3.30;;;1.30;;
6290;SDS011;3178;48.730;8.990;2022-07-05T15:30:53;5.03;;;1.37;;
6290;SDS011;3178;48.730;8.990;2022-07-05T15:33:21;1.50;;;1.20;;
6290;SDS011;3178;48.730;8.990;2022-07-05T15:35:52;8.73;;;1.33;;
6290;SDS011;3178;48.730;8.990;2022-07-05T15:38:22;4.13;;;1.10;;
6290;SDS011;3178;48.730;8.990;2022-07-05T15:40:48;2.63;;;1.00;;
6290;SDS011;3178;48.730;8.990;2022-07-05T15:43:14;1.30;;;1.10;;
6290;SDS011;3178;48.730;8.990;2022-07-05T15:45:39;3.93;;;1.00;;
6290;SDS011;3178;48.730;8.990;2022-07-05T15:48:05;1.67;;;1.20;;